createdAt,value
2017-12-21T00:00:56.664Z,95.29
2017-12-21T00:03:26.715Z,95.20
2017-12-21T00:05:55.044Z,95.19
2017-12-21T00:08:23.396Z,95.02
2017-12-21T00:10:51.747Z,94.86
2017-12-21T00:13:20.100Z,94.70
2017-12-21T00:15:49.222Z,94.64
2017-12-21T00:18:17.560Z,94.55
2017-12-21T00:20:46.000Z,94.55
2017-12-21T00:23:14.320Z,94.60
2017-12-21T00:25:42.644Z,94.58
2017-12-21T00:28:11.037Z,94.95
2017-12-21T00:30:39.462Z,95.15
2017-12-21T00:33:07.810Z,95.26
2017-12-21T00:35:36.156Z,95.26
2017-12-21T00:38:04.558Z,95.34
2017-12-21T00:40:32.904Z,95.24
2017-12-21T00:43:01.234Z,95.27
2017-12-21T00:45:29.588Z,95.30
2017-12-21T00:47:57.924Z,95.23
2017-12-21T00:50:26.295Z,94.98
2017-12-21T00:52:55.406Z,95.05
2017-12-21T00:55:23.865Z,95.32
2017-12-21T00:57:52.185Z,95.37
2017-12-21T01:00:20.499Z,95.03
2017-12-21T01:02:48.859Z,94.84
2017-12-21T01:05:17.210Z,94.85
2017-12-21T01:07:45.609Z,95.01
2017-12-21T01:10:13.923Z,94.78
2017-12-21T01:12:42.255Z,94.81
2017-12-21T01:15:10.630Z,94.74
2017-12-21T01:17:38.971Z,94.46
2017-12-21T01:20:08.056Z,94.46
2017-12-21T01:22:37.174Z,94.41
2017-12-21T01:25:05.489Z,94.33
2017-12-21T01:27:33.816Z,94.35
2017-12-21T01:30:03.032Z,94.57
2017-12-21T01:32:31.427Z,94.42
2017-12-21T01:34:59.769Z,94.70
2017-12-21T01:37:28.966Z,94.84
2017-12-21T01:39:57.252Z,94.63
2017-12-21T01:42:25.589Z,94.57
2017-12-21T01:44:53.905Z,94.49
2017-12-21T01:47:22.281Z,94.37
2017-12-21T01:49:51.368Z,94.31
2017-12-21T01:52:20.460Z,94.22
2017-12-21T01:54:49.568Z,94.26
2017-12-21T01:57:17.901Z,94.33
2017-12-21T01:59:46.282Z,94.41
2017-12-21T02:02:14.598Z,94.47
2017-12-21T02:04:42.933Z,94.54
2017-12-21T02:07:11.283Z,94.42
2017-12-21T02:09:39.659Z,94.48
2017-12-21T02:12:07.996Z,94.42
2017-12-21T02:14:37.112Z,94.36
2017-12-21T02:17:05.476Z,94.47
2017-12-21T02:19:34.556Z,94.52
2017-12-21T02:22:02.869Z,94.56
2017-12-21T02:24:31.267Z,94.60
2017-12-21T02:26:59.652Z,94.57
2017-12-21T02:29:28.756Z,94.39
2017-12-21T02:31:57.100Z,94.39
2017-12-21T02:34:25.473Z,94.49
2017-12-21T02:36:53.815Z,94.50
2017-12-21T02:39:22.133Z,94.42
2017-12-21T02:41:50.493Z,94.53
2017-12-21T02:44:18.826Z,94.36
2017-12-21T02:46:47.148Z,94.24
2017-12-21T02:49:15.579Z,94.20
2017-12-21T02:51:43.928Z,94.22
2017-12-21T02:54:12.256Z,94.45
2017-12-21T02:56:41.360Z,94.59
2017-12-21T02:59:10.547Z,94.40
2017-12-21T03:01:38.891Z,94.35
2017-12-21T03:04:07.237Z,94.15
2017-12-21T03:06:35.575Z,94.18
2017-12-21T03:09:03.904Z,94.06
2017-12-21T03:11:32.267Z,93.94
2017-12-21T03:14:00.580Z,93.79
2017-12-21T03:16:28.994Z,93.60
2017-12-21T03:18:57.320Z,93.49
2017-12-21T03:21:25.695Z,93.56
2017-12-21T03:23:53.999Z,93.62
2017-12-21T03:26:22.311Z,93.60
2017-12-21T03:28:51.431Z,93.72
2017-12-21T03:31:19.809Z,93.75
2017-12-21T03:33:48.136Z,93.69
2017-12-21T03:36:16.495Z,93.70
2017-12-21T03:38:44.832Z,93.74
2017-12-21T03:41:13.760Z,93.89
2017-12-21T03:43:42.135Z,93.97
2017-12-21T03:46:10.457Z,94.12
2017-12-21T03:48:39.568Z,94.25
2017-12-21T03:51:07.916Z,94.29
2017-12-21T03:53:37.119Z,94.43
2017-12-21T03:56:05.440Z,94.56
2017-12-21T03:58:33.821Z,94.77
2017-12-21T04:01:02.188Z,94.75
2017-12-21T04:03:30.508Z,94.76
2017-12-21T04:05:58.824Z,94.83
2017-12-21T04:08:27.196Z,94.87
2017-12-21T04:10:56.331Z,95.03
2017-12-21T04:13:24.662Z,95.27
2017-12-21T04:15:53.005Z,95.39
2017-12-21T04:18:21.429Z,95.29
2017-12-21T04:20:50.530Z,95.08
2017-12-21T04:23:19.628Z,95.06
2017-12-21T04:25:47.989Z,95.10
2017-12-21T04:28:17.170Z,95.12
2017-12-21T04:30:45.517Z,95.04
2017-12-21T04:33:13.860Z,94.93
2017-12-21T04:35:42.254Z,94.83
2017-12-21T04:38:10.594Z,94.87
2017-12-21T04:40:39.737Z,94.73
2017-12-21T04:43:08.088Z,94.68
2017-12-21T04:45:36.476Z,94.50
2017-12-21T04:48:04.832Z,94.39
2017-12-21T04:50:34.029Z,94.37
2017-12-21T04:53:03.216Z,94.37
2017-12-21T04:55:31.623Z,94.40
2017-12-21T04:58:00.050Z,94.46
2017-12-21T05:00:28.390Z,94.47
2017-12-21T05:02:56.732Z,94.30
2017-12-21T05:05:25.869Z,94.18
2017-12-21T05:07:54.203Z,94.04
2017-12-21T05:10:22.548Z,94.04
2017-12-21T05:12:50.876Z,93.78
2017-12-21T05:15:19.986Z,93.65
2017-12-21T05:17:48.322Z,93.59
2017-12-21T05:20:16.667Z,93.53
2017-12-21T05:22:44.988Z,93.56
2017-12-21T05:25:14.108Z,93.36
2017-12-21T05:27:42.433Z,93.64
2017-12-21T05:30:10.809Z,93.75
2017-12-21T05:32:39.144Z,93.73
2017-12-21T05:35:07.506Z,93.62
2017-12-21T05:37:36.615Z,93.53
2017-12-21T05:40:04.936Z,93.54
2017-12-21T05:42:33.296Z,93.50
2017-12-21T05:45:01.625Z,93.39
2017-12-21T05:47:30.758Z,93.62
2017-12-21T05:49:59.096Z,93.67
2017-12-21T05:52:28.224Z,93.45
2017-12-21T05:54:56.556Z,93.19
2017-12-21T05:57:24.884Z,94.39
2017-12-21T05:59:53.277Z,93.13
2017-12-21T06:02:21.724Z,92.46
2017-12-21T06:04:50.058Z,93.06
2017-12-21T06:07:18.400Z,93.55
2017-12-21T06:09:46.751Z,93.70
2017-12-21T06:12:15.089Z,93.91
2017-12-21T06:14:43.436Z,93.60
2017-12-21T06:17:11.789Z,93.91
2017-12-21T06:19:40.109Z,94.38
2017-12-21T06:22:08.436Z,94.34
2017-12-21T06:24:37.570Z,94.49
2017-12-21T06:27:05.883Z,94.72
2017-12-21T06:29:34.203Z,94.59
2017-12-21T06:32:02.598Z,94.63
2017-12-21T06:34:30.940Z,94.66
2017-12-21T06:37:00.090Z,94.52
2017-12-21T06:39:28.448Z,94.21
2017-12-21T06:41:56.880Z,93.81
2017-12-21T06:44:25.970Z,93.70
2017-12-21T06:46:54.289Z,93.79
2017-12-21T06:49:22.641Z,94.02
2017-12-21T06:51:51.743Z,93.83
2017-12-21T06:54:20.085Z,93.94
2017-12-21T06:56:48.405Z,94.01
2017-12-21T06:59:16.758Z,94.17
2017-12-21T07:01:45.839Z,94.18
2017-12-21T07:04:14.180Z,94.22
2017-12-21T07:06:42.523Z,94.36
2017-12-21T07:09:10.840Z,94.32
2017-12-21T07:11:39.160Z,93.88
2017-12-21T07:14:08.263Z,94.08
2017-12-21T07:16:37.391Z,94.27
2017-12-21T07:19:05.716Z,94.29
2017-12-21T07:21:34.050Z,94.29
2017-12-21T07:24:02.450Z,94.33
2017-12-21T07:26:30.791Z,94.22
2017-12-21T07:28:59.123Z,94.18
2017-12-21T07:31:27.460Z,94.14
2017-12-21T07:33:55.840Z,94.17
2017-12-21T07:36:24.187Z,94.20
2017-12-21T07:38:53.274Z,93.83
2017-12-21T07:41:22.395Z,93.54
2017-12-21T07:43:50.720Z,93.50
2017-12-21T07:46:19.097Z,93.25
2017-12-21T07:48:47.436Z,93.25
2017-12-21T07:51:15.764Z,93.32
2017-12-21T07:53:44.883Z,94.05
2017-12-21T07:56:14.036Z,93.35
2017-12-21T07:58:44.001Z,94.16
2017-12-21T08:01:12.320Z,93.83
2017-12-21T08:03:40.668Z,94.38
2017-12-21T08:06:08.987Z,94.45
2017-12-21T08:08:38.864Z,94.11
2017-12-21T08:11:07.203Z,94.04
2017-12-21T08:13:36.294Z,93.88
2017-12-21T08:16:05.420Z,94.28
2017-12-21T08:18:33.735Z,94.58
2017-12-21T08:21:02.089Z,94.65
2017-12-21T08:23:30.423Z,94.84
2017-12-21T08:25:59.538Z,94.91
2017-12-21T08:28:27.863Z,95.01
2017-12-21T08:30:56.241Z,95.21
2017-12-21T08:33:24.592Z,95.26
2017-12-21T08:35:52.915Z,95.40
2017-12-21T08:38:21.343Z,95.59
2017-12-21T08:40:49.668Z,95.54
2017-12-21T08:43:17.983Z,95.62
2017-12-21T08:45:46.314Z,95.57
2017-12-21T08:48:14.654Z,95.59
2017-12-21T08:50:42.974Z,95.64
2017-12-21T08:53:11.324Z,95.56
2017-12-21T08:55:39.661Z,95.42
2017-12-21T08:58:07.984Z,95.26
2017-12-21T09:00:36.344Z,95.17
2017-12-21T09:03:04.679Z,95.08
2017-12-21T09:05:33.762Z,94.83
2017-12-21T09:08:02.108Z,94.54
2017-12-21T09:10:30.435Z,94.10
2017-12-21T09:12:59.537Z,93.69
2017-12-21T09:15:28.679Z,93.18
2017-12-21T09:17:56.994Z,92.75
2017-12-21T09:20:26.188Z,92.63
2017-12-21T09:22:55.300Z,92.74
2017-12-21T09:25:24.422Z,92.84
2017-12-21T09:27:52.854Z,92.61
2017-12-21T09:30:21.233Z,93.05
2017-12-21T09:32:50.340Z,91.58
2017-12-21T09:35:19.455Z,91.84
2017-12-21T09:37:47.772Z,91.73
2017-12-21T09:40:16.214Z,91.93
2017-12-21T09:42:44.556Z,91.73
2017-12-21T09:45:12.887Z,91.30
2017-12-21T09:47:41.300Z,91.44
2017-12-21T09:50:09.861Z,92.07
2017-12-21T09:52:38.191Z,91.50
2017-12-21T09:55:06.525Z,91.48
2017-12-21T09:57:34.877Z,91.50
2017-12-21T10:00:03.195Z,91.59
2017-12-21T10:02:31.549Z,91.41
2017-12-21T10:04:59.909Z,91.23
2017-12-21T10:07:28.244Z,91.74
2017-12-21T10:09:57.333Z,91.38
2017-12-21T10:12:25.668Z,91.34
2017-12-21T10:14:53.976Z,91.76
2017-12-21T10:17:22.332Z,91.57
2017-12-21T10:19:50.664Z,91.75
2017-12-21T10:22:19.013Z,91.90
2017-12-21T10:24:47.328Z,91.86
2017-12-21T10:27:15.678Z,91.98
2017-12-21T10:29:44.774Z,91.72
2017-12-21T10:32:13.864Z,91.58
2017-12-21T10:34:42.208Z,91.06
2017-12-21T10:37:10.525Z,90.81
2017-12-21T10:39:39.747Z,90.79
2017-12-21T10:42:08.063Z,90.56
2017-12-21T10:44:36.394Z,90.97
2017-12-21T10:47:04.784Z,91.09
2017-12-21T10:49:33.101Z,90.87
2017-12-21T10:52:01.417Z,90.88
2017-12-21T10:54:30.544Z,91.37
2017-12-21T10:56:58.867Z,91.39
2017-12-21T10:59:27.186Z,90.79
2017-12-21T11:01:55.520Z,90.97
2017-12-21T11:04:23.840Z,91.20
2017-12-21T11:06:52.184Z,91.01
2017-12-21T11:09:21.263Z,91.38
2017-12-21T11:11:49.603Z,91.86
2017-12-21T11:14:17.943Z,92.08
2017-12-21T11:16:47.133Z,91.81
2017-12-21T11:19:16.248Z,91.75
2017-12-21T11:21:44.568Z,91.77
2017-12-21T11:24:12.914Z,91.68
2017-12-21T11:26:41.277Z,91.91
2017-12-21T11:29:09.621Z,91.91
2017-12-21T11:31:37.939Z,92.05
2017-12-21T11:34:06.281Z,92.47
2017-12-21T11:36:34.591Z,92.84
2017-12-21T11:39:02.933Z,93.11
2017-12-21T11:41:31.344Z,93.42
2017-12-21T11:43:59.719Z,93.62
2017-12-21T11:46:28.032Z,93.67
2017-12-21T11:48:56.367Z,93.69
2017-12-21T11:51:25.508Z,93.68
2017-12-21T11:53:53.854Z,93.71
2017-12-21T11:56:22.195Z,93.95
2017-12-21T11:58:50.553Z,94.20
2017-12-21T12:01:18.867Z,94.04
2017-12-21T12:03:47.952Z,93.83
2017-12-21T12:06:17.067Z,94.09
2017-12-21T12:08:45.400Z,94.19
2017-12-21T12:11:14.359Z,94.87
2017-12-21T12:13:42.703Z,95.19
2017-12-21T12:16:11.032Z,95.21
2017-12-21T12:18:39.402Z,95.22
2017-12-21T12:21:07.744Z,95.38
2017-12-21T12:23:36.825Z,95.52
2017-12-21T12:26:05.953Z,95.65
2017-12-21T12:28:34.304Z,95.34
2017-12-21T12:31:03.389Z,94.65
2017-12-21T12:33:32.475Z,94.32
2017-12-21T12:36:00.830Z,93.81
2017-12-21T12:38:29.153Z,93.07
2017-12-21T12:40:58.257Z,92.43
2017-12-21T12:43:26.586Z,92.65
2017-12-21T12:45:54.942Z,92.24
2017-12-21T12:48:23.313Z,91.59
2017-12-21T12:50:51.660Z,91.68
2017-12-21T12:53:20.751Z,91.48
2017-12-21T12:55:49.859Z,91.77
2017-12-21T12:58:18.213Z,91.70
2017-12-21T13:00:47.301Z,91.59
2017-12-21T13:03:15.672Z,91.99
2017-12-21T13:05:44.014Z,91.65
2017-12-21T13:08:12.349Z,91.58
2017-12-21T13:10:41.469Z,91.74
2017-12-21T13:13:09.780Z,91.20
2017-12-21T13:15:38.983Z,91.20
2017-12-21T13:18:07.300Z,91.48
2017-12-21T13:20:35.620Z,91.42
2017-12-21T13:23:03.983Z,91.40
2017-12-21T13:25:32.295Z,91.39
2017-12-21T13:28:00.632Z,91.44
2017-12-21T13:30:29.013Z,91.25
2017-12-21T13:32:57.330Z,91.20
2017-12-21T13:35:25.665Z,90.71
2017-12-21T13:37:54.037Z,90.67
2017-12-21T13:40:22.354Z,90.49
2017-12-21T13:42:50.692Z,90.52
2017-12-21T13:45:19.037Z,90.35
2017-12-21T13:47:48.115Z,90.34
2017-12-21T13:50:16.475Z,89.92
2017-12-21T13:52:44.791Z,89.83
2017-12-21T13:55:13.881Z,90.49
2017-12-21T13:57:42.254Z,89.46
2017-12-21T14:00:10.616Z,89.53
2017-12-21T14:02:38.940Z,89.36
2017-12-21T14:05:07.259Z,89.33
2017-12-21T14:07:35.608Z,89.25
2017-12-21T14:10:03.934Z,89.05
2017-12-21T14:12:32.251Z,88.78
2017-12-21T14:15:00.623Z,89.18
2017-12-21T14:17:28.959Z,89.28
2017-12-21T14:19:57.292Z,89.06
2017-12-21T14:22:25.632Z,88.23
2017-12-21T14:24:54.704Z,88.12
2017-12-21T14:27:23.233Z,88.07
2017-12-21T14:29:51.555Z,88.34
2017-12-21T14:32:19.954Z,88.43
2017-12-21T14:34:48.296Z,88.41
2017-12-21T14:37:16.616Z,88.42
2017-12-21T14:39:45.729Z,88.48
2017-12-21T14:42:14.097Z,88.39
2017-12-21T14:44:43.276Z,88.32
2017-12-21T14:47:11.604Z,88.36
2017-12-21T14:49:40.073Z,88.27
2017-12-21T14:52:08.439Z,88.54
2017-12-21T14:54:36.793Z,88.47
2017-12-21T14:57:05.895Z,88.89
2017-12-21T14:59:35.013Z,89.07
2017-12-21T15:02:03.349Z,89.03
2017-12-21T15:04:31.678Z,88.95
2017-12-21T15:07:00.028Z,88.76
2017-12-21T15:09:29.109Z,88.63
2017-12-21T15:11:57.449Z,88.53
2017-12-21T15:14:25.777Z,88.43
2017-12-21T15:16:54.856Z,88.35
2017-12-21T15:19:23.215Z,88.48
2017-12-21T15:21:51.583Z,88.48
2017-12-21T15:24:19.900Z,88.48
2017-12-21T15:26:49.024Z,88.62
2017-12-21T15:29:17.344Z,88.52
2017-12-21T15:31:45.692Z,88.74
2017-12-21T15:34:14.035Z,88.65
2017-12-21T15:36:43.163Z,88.72
2017-12-21T15:39:11.519Z,88.75
2017-12-21T15:41:39.834Z,89.25
2017-12-21T15:44:08.162Z,89.13
2017-12-21T15:46:37.280Z,89.27
2017-12-21T15:49:05.629Z,88.96
2017-12-21T15:54:09.345Z,88.49
2017-12-21T15:56:38.456Z,88.21
2017-12-21T15:59:06.812Z,87.49
2017-12-21T16:01:35.965Z,87.08
2017-12-21T16:04:04.291Z,86.94
2017-12-21T16:06:33.416Z,86.94
2017-12-21T16:09:01.756Z,87.14
2017-12-21T16:11:30.188Z,86.94
2017-12-21T16:13:58.536Z,87.18
2017-12-21T16:16:27.640Z,87.17
2017-12-21T16:18:56.241Z,87.20
2017-12-21T16:21:24.586Z,87.55
2017-12-21T16:23:53.674Z,87.59
2017-12-21T16:26:22.796Z,87.25
2017-12-21T16:28:51.156Z,86.83
2017-12-21T16:31:20.253Z,86.49
2017-12-21T16:33:48.618Z,86.47
2017-12-21T16:36:17.721Z,86.58
2017-12-21T16:38:46.812Z,86.85
2017-12-21T16:41:15.969Z,86.90
2017-12-21T16:43:44.321Z,86.28
2017-12-21T16:46:12.652Z,86.29
2017-12-21T16:48:41.003Z,86.50
2017-12-21T16:51:09.370Z,86.67
2017-12-21T16:53:37.700Z,86.75
2017-12-21T16:56:06.819Z,86.77
2017-12-21T16:58:35.183Z,86.87
2017-12-21T17:01:03.521Z,86.29
2017-12-21T17:03:31.851Z,86.72
2017-12-21T17:06:00.224Z,86.95
2017-12-21T17:08:28.537Z,86.89
2017-12-21T17:10:56.901Z,87.15
2017-12-21T17:13:25.227Z,87.33
2017-12-21T17:15:54.345Z,87.25
2017-12-21T17:18:22.660Z,87.01
2017-12-21T17:20:51.806Z,86.83
2017-12-21T17:23:20.918Z,86.49
2017-12-21T17:25:49.234Z,86.76
2017-12-21T17:28:17.592Z,86.71
2017-12-21T17:30:45.951Z,86.77
2017-12-21T17:33:14.296Z,86.95
2017-12-21T17:35:43.398Z,87.24
2017-12-21T17:38:12.480Z,87.16
2017-12-21T17:40:40.816Z,87.18
2017-12-21T17:43:09.144Z,87.34
2017-12-21T17:45:38.240Z,87.20
2017-12-21T17:48:07.328Z,87.29
2017-12-21T17:50:35.683Z,87.40
2017-12-21T17:53:04.020Z,87.44
2017-12-21T17:55:32.360Z,87.66
2017-12-21T17:58:00.711Z,87.95
2017-12-21T18:00:29.029Z,87.91
2017-12-21T18:02:58.213Z,87.79
2017-12-21T18:05:27.164Z,88.02
2017-12-21T18:07:55.492Z,88.12
2017-12-21T18:10:24.619Z,88.20
2017-12-21T18:12:52.954Z,88.41
2017-12-21T18:15:22.106Z,88.43
2017-12-21T18:17:50.438Z,88.89
2017-12-21T18:20:19.583Z,88.62
2017-12-21T18:22:47.935Z,88.49
2017-12-21T18:25:16.263Z,88.41
2017-12-21T18:27:44.631Z,88.25
2017-12-21T18:30:13.058Z,88.46
2017-12-21T18:32:41.380Z,88.64
2017-12-21T18:35:09.748Z,88.74
2017-12-21T18:37:38.132Z,88.90
2017-12-21T18:40:06.468Z,89.08
2017-12-21T18:42:34.800Z,89.17
2017-12-21T18:45:03.230Z,89.34
2017-12-21T18:47:31.541Z,89.33
2017-12-21T18:49:59.898Z,89.35
2017-12-21T18:52:28.252Z,89.32
2017-12-21T18:54:57.401Z,89.23
2017-12-21T18:57:25.777Z,89.11
2017-12-21T18:59:54.185Z,88.75
2017-12-21T19:02:22.512Z,88.61
2017-12-21T19:04:50.947Z,88.25
2017-12-21T19:07:20.163Z,88.07
2017-12-21T19:09:49.255Z,87.77
2017-12-21T19:12:18.334Z,87.68
2017-12-21T19:14:47.456Z,88.03
2017-12-21T19:17:15.792Z,88.14
2017-12-21T19:19:44.124Z,88.38
2017-12-21T19:22:12.491Z,88.51
2017-12-21T19:24:40.834Z,88.69
2017-12-21T19:27:09.940Z,88.93
2017-12-21T19:29:39.061Z,89.15
2017-12-21T19:32:07.406Z,88.92
2017-12-21T19:34:36.533Z,88.67
2017-12-21T19:37:04.891Z,88.76
2017-12-21T19:39:34.000Z,88.69
2017-12-21T19:42:02.435Z,88.91
2017-12-21T19:44:30.833Z,88.80
2017-12-21T19:46:59.941Z,88.79
2017-12-21T19:49:29.067Z,88.58
2017-12-21T19:51:57.389Z,88.76
2017-12-21T19:54:25.734Z,88.54
2017-12-21T19:56:54.164Z,89.08
2017-12-21T19:59:23.299Z,89.19
2017-12-21T20:01:51.627Z,88.98
2017-12-21T20:04:19.986Z,89.08
2017-12-21T20:06:48.348Z,88.99
2017-12-21T20:09:16.717Z,88.92
2017-12-21T20:11:45.061Z,89.04
2017-12-21T20:14:13.408Z,89.15
2017-12-21T20:16:41.752Z,89.05
2017-12-21T20:19:10.142Z,88.94
2017-12-21T20:21:38.547Z,89.02
2017-12-21T20:24:07.675Z,89.20
2017-12-21T20:26:36.031Z,89.05
2017-12-21T20:29:06.241Z,89.12
2017-12-21T20:31:35.389Z,89.29
2017-12-21T20:34:03.708Z,89.54
2017-12-21T20:36:32.045Z,89.68
2017-12-21T20:39:00.389Z,89.91
2017-12-21T20:41:29.483Z,90.05
2017-12-21T20:43:58.664Z,90.13
2017-12-21T20:46:27.790Z,90.27
2017-12-21T20:48:56.152Z,90.43
2017-12-21T20:51:25.235Z,90.65
2017-12-21T20:53:55.245Z,90.77
2017-12-21T20:56:23.585Z,91.06
2017-12-21T20:58:51.933Z,91.47
2017-12-21T21:01:20.259Z,91.59
2017-12-21T21:03:48.652Z,91.80
2017-12-21T21:06:16.983Z,92.03
2017-12-21T21:08:45.325Z,92.07
2017-12-21T21:11:14.440Z,92.09
2017-12-21T21:13:42.818Z,92.19
2017-12-21T21:16:11.167Z,92.37
2017-12-21T21:18:40.280Z,92.64
2017-12-21T21:21:08.625Z,92.82
2017-12-21T21:23:38.556Z,92.85
2017-12-21T21:26:07.645Z,92.81
2017-12-21T21:28:35.977Z,92.90
2017-12-21T21:31:04.359Z,92.99
2017-12-21T21:33:32.764Z,93.16
2017-12-21T21:36:01.109Z,93.22
2017-12-21T21:38:29.501Z,93.13
2017-12-21T21:40:57.960Z,93.11
2017-12-21T21:43:26.314Z,93.09
2017-12-21T21:45:54.972Z,93.05
2017-12-21T21:48:23.312Z,92.82
2017-12-21T21:50:51.688Z,92.37
2017-12-21T21:53:20.083Z,91.97
2017-12-21T21:55:48.408Z,91.77
2017-12-21T21:58:17.521Z,91.76
2017-12-21T22:00:45.894Z,91.88
2017-12-21T22:03:14.223Z,91.85
2017-12-21T22:05:42.543Z,91.65
2017-12-21T22:08:10.894Z,91.50
2017-12-21T22:10:39.229Z,91.39
2017-12-21T22:13:07.559Z,91.41
2017-12-21T22:15:36.716Z,91.32
2017-12-21T22:18:05.056Z,91.40
2017-12-21T22:20:33.371Z,91.29
2017-12-21T22:23:01.756Z,91.13
2017-12-21T22:25:30.116Z,91.08
2017-12-21T22:27:58.448Z,91.04
2017-12-21T22:30:27.591Z,90.85
2017-12-21T22:32:55.941Z,90.55
2017-12-21T22:35:24.256Z,90.41
2017-12-21T22:37:52.628Z,90.33
2017-12-21T22:40:20.953Z,90.29
2017-12-21T22:42:50.034Z,89.96
2017-12-21T22:45:19.145Z,89.79
2017-12-21T22:47:48.992Z,89.57
2017-12-21T22:50:17.365Z,89.46
2017-12-21T22:52:45.708Z,89.42
2017-12-21T22:55:14.053Z,89.37
2017-12-21T22:57:42.397Z,89.30
2017-12-21T23:00:10.724Z,89.31
2017-12-21T23:02:39.083Z,89.14
2017-12-21T23:05:07.432Z,88.88
2017-12-21T23:07:35.778Z,88.93
2017-12-21T23:10:04.917Z,88.99
2017-12-21T23:12:33.244Z,88.92
2017-12-21T23:15:01.598Z,88.84
2017-12-21T23:17:29.933Z,88.74
2017-12-21T23:19:58.312Z,88.98
2017-12-21T23:22:26.631Z,88.91
2017-12-21T23:24:54.966Z,88.72
2017-12-21T23:27:23.324Z,88.81
2017-12-21T23:29:51.649Z,88.70
2017-12-21T23:32:20.019Z,88.77
2017-12-21T23:34:48.368Z,88.72
2017-12-21T23:37:16.701Z,88.87
2017-12-21T23:39:45.048Z,88.71
2017-12-21T23:42:13.375Z,88.58
2017-12-21T23:44:42.485Z,88.61
2017-12-21T23:47:10.865Z,88.40
2017-12-21T23:49:39.252Z,88.41
2017-12-21T23:52:07.592Z,88.48
2017-12-21T23:54:36.702Z,88.49
2017-12-21T23:57:05.836Z,88.23
2017-12-21T23:59:34.411Z,88.13
